De Kalb Junction, New York
Current Conditions -  °F | °C
As of 9:53 AM on Monday 24 Nov 2014 (Local Time) from KMSS Reporting Station
Overcast Overcast  
Wind Chill: 58°   Ceiling: 4600
Heat Index: 58°   Visibility: 10mi
Dew Point: 54°   Wind: 16mph
Humidity: 87%   Direction: 180°S
Pressure: 29.36"   Gusts: NA
Location:  44.5°N, 75.27°W
Report Text: KMSS 241453Z AUTO 18014KT 10SM OVC046 14/12 A2936 RMK AO2 RAB1359E51 SLP943 P0003 60003 T01440122 56029
Loading
Personal Weather Stations






























Interactive Weather Map New forecast layout! Learn more

10-Day Weather Forecast

Advertisements
Track Severe Weather on mobile